sensor_id;sensor_type;location;lat;lon;timestamp;temperature;humidity
2621;DHT22;1320;48.128;11.592;2023-12-28T00:00:18;8.50;90.70
2621;DHT22;1320;48.128;11.592;2023-12-28T00:02:43;8.50;90.70
2621;DHT22;1320;48.128;11.592;2023-12-28T00:05:09;8.50;90.80
2621;DHT22;1320;48.128;11.592;2023-12-28T00:07:35;8.50;91.00
2621;DHT22;1320;48.128;11.592;2023-12-28T00:10:02;8.50;90.70
2621;DHT22;1320;48.128;11.592;2023-12-28T00:12:27;8.50;90.90
2621;DHT22;1320;48.128;11.592;2023-12-28T00:14:53;8.40;91.00
2621;DHT22;1320;48.128;11.592;2023-12-28T00:17:19;8.40;90.70
2621;DHT22;1320;48.128;11.592;2023-12-28T00:19:45;8.40;90.90
2621;DHT22;1320;48.128;11.592;2023-12-28T00:22:11;8.30;90.90
2621;DHT22;1320;48.128;11.592;2023-12-28T00:24:37;8.40;91.00
2621;DHT22;1320;48.128;11.592;2023-12-28T00:27:02;8.30;91.00
2621;DHT22;1320;48.128;11.592;2023-12-28T00:29:28;8.30;90.70
2621;DHT22;1320;48.128;11.592;2023-12-28T00:31:54;8.30;90.80
2621;DHT22;1320;48.128;11.592;2023-12-28T00:34:20;8.20;90.80
2621;DHT22;1320;48.128;11.592;2023-12-28T00:36:46;8.20;90.70
2621;DHT22;1320;48.128;11.592;2023-12-28T00:39:12;8.20;90.70
2621;DHT22;1320;48.128;11.592;2023-12-28T00:41:38;8.20;90.60
2621;DHT22;1320;48.128;11.592;2023-12-28T00:44:04;8.20;90.70
2621;DHT22;1320;48.128;11.592;2023-12-28T00:46:30;8.20;90.70
2621;DHT22;1320;48.128;11.592;2023-12-28T00:48:56;8.20;90.70
2621;DHT22;1320;48.128;11.592;2023-12-28T00:51:22;8.20;90.70
2621;DHT22;1320;48.128;11.592;2023-12-28T00:53:48;8.20;90.50
2621;DHT22;1320;48.128;11.592;2023-12-28T00:56:13;8.20;90.50
2621;DHT22;1320;48.128;11.592;2023-12-28T00:58:42;8.20;90.60
2621;DHT22;1320;48.128;11.592;2023-12-28T01:01:09;8.20;90.60
2621;DHT22;1320;48.128;11.592;2023-12-28T01:03:35;8.10;90.80
2621;DHT22;1320;48.128;11.592;2023-12-28T01:06:01;8.10;90.90
2621;DHT22;1320;48.128;11.592;2023-12-28T01:08:27;8.00;90.80
2621;DHT22;1320;48.128;11.592;2023-12-28T01:10:53;8.00;90.90
2621;DHT22;1320;48.128;11.592;2023-12-28T01:13:18;8.00;91.00
2621;DHT22;1320;48.128;11.592;2023-12-28T01:15:44;7.90;91.00
2621;DHT22;1320;48.128;11.592;2023-12-28T01:18:10;7.80;91.10
2621;DHT22;1320;48.128;11.592;2023-12-28T01:20:35;7.80;91.10
2621;DHT22;1320;48.128;11.592;2023-12-28T01:23:01;7.80;91.00
2621;DHT22;1320;48.128;11.592;2023-12-28T01:25:27;7.80;91.10
2621;DHT22;1320;48.128;11.592;2023-12-28T01:27:53;7.80;91.00
2621;DHT22;1320;48.128;11.592;2023-12-28T01:30:18;7.80;91.00
2621;DHT22;1320;48.128;11.592;2023-12-28T01:32:44;7.80;90.90
2621;DHT22;1320;48.128;11.592;2023-12-28T01:35:10;7.80;90.80
2621;DHT22;1320;48.128;11.592;2023-12-28T01:37:35;7.80;90.90
2621;DHT22;1320;48.128;11.592;2023-12-28T01:40:01;7.80;91.10
2621;DHT22;1320;48.128;11.592;2023-12-28T01:42:27;7.80;91.10
2621;DHT22;1320;48.128;11.592;2023-12-28T01:44:56;7.80;91.10
2621;DHT22;1320;48.128;11.592;2023-12-28T01:47:23;7.80;91.20
2621;DHT22;1320;48.128;11.592;2023-12-28T01:49:49;7.80;91.30
2621;DHT22;1320;48.128;11.592;2023-12-28T01:52:14;7.70;91.20
2621;DHT22;1320;48.128;11.592;2023-12-28T01:54:40;7.70;91.10
2621;DHT22;1320;48.128;11.592;2023-12-28T01:57:06;7.70;91.10
2621;DHT22;1320;48.128;11.592;2023-12-28T01:59:32;7.70;91.20
2621;DHT22;1320;48.128;11.592;2023-12-28T02:01:58;7.70;91.20
2621;DHT22;1320;48.128;11.592;2023-12-28T02:04:24;7.70;91.10
2621;DHT22;1320;48.128;11.592;2023-12-28T02:06:59;7.70;90.90
2621;DHT22;1320;48.128;11.592;2023-12-28T02:09:25;7.80;90.70
2621;DHT22;1320;48.128;11.592;2023-12-28T02:11:52;7.80;90.80
2621;DHT22;1320;48.128;11.592;2023-12-28T02:14:18;7.90;90.60
2621;DHT22;1320;48.128;11.592;2023-12-28T02:16:47;8.00;90.30
2621;DHT22;1320;48.128;11.592;2023-12-28T02:22:04;8.20;90.10
2621;DHT22;1320;48.128;11.592;2023-12-28T02:24:30;8.20;89.90
2621;DHT22;1320;48.128;11.592;2023-12-28T02:26:56;8.30;89.20
2621;DHT22;1320;48.128;11.592;2023-12-28T02:29:21;8.40;88.30
2621;DHT22;1320;48.128;11.592;2023-12-28T02:31:53;8.50;88.70
2621;DHT22;1320;48.128;11.592;2023-12-28T02:34:35;8.60;88.80
2621;DHT22;1320;48.128;11.592;2023-12-28T02:37:03;8.60;89.50
2621;DHT22;1320;48.128;11.592;2023-12-28T02:39:30;8.60;89.40
2621;DHT22;1320;48.128;11.592;2023-12-28T02:41:56;8.60;89.60
2621;DHT22;1320;48.128;11.592;2023-12-28T02:44:22;8.60;89.70
2621;DHT22;1320;48.128;11.592;2023-12-28T02:46:48;8.50;89.50
2621;DHT22;1320;48.128;11.592;2023-12-28T02:49:14;8.50;89.60
2621;DHT22;1320;48.128;11.592;2023-12-28T02:51:40;8.50;89.60
2621;DHT22;1320;48.128;11.592;2023-12-28T02:54:08;8.50;89.40
2621;DHT22;1320;48.128;11.592;2023-12-28T02:56:33;8.50;89.50
2621;DHT22;1320;48.128;11.592;2023-12-28T02:58:59;8.40;89.40
2621;DHT22;1320;48.128;11.592;2023-12-28T03:01:25;8.40;89.20
2621;DHT22;1320;48.128;11.592;2023-12-28T03:03:51;8.40;89.40
2621;DHT22;1320;48.128;11.592;2023-12-28T03:06:16;8.40;89.10
2621;DHT22;1320;48.128;11.592;2023-12-28T03:08:42;8.40;89.10
2621;DHT22;1320;48.128;11.592;2023-12-28T03:11:08;8.40;89.20
2621;DHT22;1320;48.128;11.592;2023-12-28T03:13:33;8.40;89.00
2621;DHT22;1320;48.128;11.592;2023-12-28T03:15:59;8.40;88.60
2621;DHT22;1320;48.128;11.592;2023-12-28T03:18:24;8.40;88.30
2621;DHT22;1320;48.128;11.592;2023-12-28T03:20:50;8.50;88.60
2621;DHT22;1320;48.128;11.592;2023-12-28T03:23:16;8.50;88.10
2621;DHT22;1320;48.128;11.592;2023-12-28T03:25:41;8.50;87.80
2621;DHT22;1320;48.128;11.592;2023-12-28T03:28:07;8.50;87.80
2621;DHT22;1320;48.128;11.592;2023-12-28T03:30:33;8.60;87.30
2621;DHT22;1320;48.128;11.592;2023-12-28T03:32:58;8.60;87.30
2621;DHT22;1320;48.128;11.592;2023-12-28T03:35:24;8.60;87.40
2621;DHT22;1320;48.128;11.592;2023-12-28T03:37:49;8.60;87.20
2621;DHT22;1320;48.128;11.592;2023-12-28T03:40:15;8.70;86.70
2621;DHT22;1320;48.128;11.592;2023-12-28T03:42:41;8.70;86.60
2621;DHT22;1320;48.128;11.592;2023-12-28T03:45:07;8.60;86.50
2621;DHT22;1320;48.128;11.592;2023-12-28T03:47:33;8.60;86.50
2621;DHT22;1320;48.128;11.592;2023-12-28T03:49:59;8.60;86.30
2621;DHT22;1320;48.128;11.592;2023-12-28T03:52:27;8.50;86.00
2621;DHT22;1320;48.128;11.592;2023-12-28T03:54:55;8.50;86.00
2621;DHT22;1320;48.128;11.592;2023-12-28T03:57:21;8.40;85.70
2621;DHT22;1320;48.128;11.592;2023-12-28T03:59:47;8.40;85.80
2621;DHT22;1320;48.128;11.592;2023-12-28T04:02:13;8.30;85.90
2621;DHT22;1320;48.128;11.592;2023-12-28T04:04:39;8.30;85.90
2621;DHT22;1320;48.128;11.592;2023-12-28T04:07:05;8.30;85.70
2621;DHT22;1320;48.128;11.592;2023-12-28T04:09:33;8.30;85.60
2621;DHT22;1320;48.128;11.592;2023-12-28T04:11:58;8.30;85.50
2621;DHT22;1320;48.128;11.592;2023-12-28T04:14:24;8.30;85.80
2621;DHT22;1320;48.128;11.592;2023-12-28T04:16:50;8.30;85.80
2621;DHT22;1320;48.128;11.592;2023-12-28T04:19:15;8.30;85.80
2621;DHT22;1320;48.128;11.592;2023-12-28T04:21:44;8.30;86.00
2621;DHT22;1320;48.128;11.592;2023-12-28T04:24:10;8.30;86.30
2621;DHT22;1320;48.128;11.592;2023-12-28T04:26:36;8.30;86.50
2621;DHT22;1320;48.128;11.592;2023-12-28T04:29:02;8.30;86.70
2621;DHT22;1320;48.128;11.592;2023-12-28T04:31:27;8.20;86.80
2621;DHT22;1320;48.128;11.592;2023-12-28T04:33:53;8.20;86.40
2621;DHT22;1320;48.128;11.592;2023-12-28T04:36:19;8.20;86.40
2621;DHT22;1320;48.128;11.592;2023-12-28T04:38:44;8.20;86.50
2621;DHT22;1320;48.128;11.592;2023-12-28T04:41:10;8.20;86.40
2621;DHT22;1320;48.128;11.592;2023-12-28T04:43:37;8.30;86.50
2621;DHT22;1320;48.128;11.592;2023-12-28T04:46:04;8.30;85.80
2621;DHT22;1320;48.128;11.592;2023-12-28T04:48:30;8.30;85.90
2621;DHT22;1320;48.128;11.592;2023-12-28T04:50:56;8.30;85.80
2621;DHT22;1320;48.128;11.592;2023-12-28T04:53:21;8.40;85.80
2621;DHT22;1320;48.128;11.592;2023-12-28T04:55:47;8.40;85.30
2621;DHT22;1320;48.128;11.592;2023-12-28T04:58:13;8.50;85.30
2621;DHT22;1320;48.128;11.592;2023-12-28T05:00:39;8.50;84.60
2621;DHT22;1320;48.128;11.592;2023-12-28T05:03:05;8.50;84.90
2621;DHT22;1320;48.128;11.592;2023-12-28T05:05:31;8.50;85.00
2621;DHT22;1320;48.128;11.592;2023-12-28T05:07:57;8.60;85.00
2621;DHT22;1320;48.128;11.592;2023-12-28T05:10:23;8.50;85.20
2621;DHT22;1320;48.128;11.592;2023-12-28T05:12:49;8.50;85.10
2621;DHT22;1320;48.128;11.592;2023-12-28T05:15:14;8.60;84.90
2621;DHT22;1320;48.128;11.592;2023-12-28T05:17:41;8.50;85.10
2621;DHT22;1320;48.128;11.592;2023-12-28T05:20:07;8.50;85.00
2621;DHT22;1320;48.128;11.592;2023-12-28T05:22:33;8.50;85.10
2621;DHT22;1320;48.128;11.592;2023-12-28T05:24:58;8.50;84.80
2621;DHT22;1320;48.128;11.592;2023-12-28T05:27:24;8.50;85.00
2621;DHT22;1320;48.128;11.592;2023-12-28T05:29:50;8.40;85.10
2621;DHT22;1320;48.128;11.592;2023-12-28T05:32:16;8.40;85.10
2621;DHT22;1320;48.128;11.592;2023-12-28T05:34:41;8.40;85.20
2621;DHT22;1320;48.128;11.592;2023-12-28T05:37:07;8.50;85.40
2621;DHT22;1320;48.128;11.592;2023-12-28T05:39:33;8.40;85.30
2621;DHT22;1320;48.128;11.592;2023-12-28T05:41:58;8.40;85.20
2621;DHT22;1320;48.128;11.592;2023-12-28T05:44:24;8.40;85.20
2621;DHT22;1320;48.128;11.592;2023-12-28T05:46:50;8.40;85.50
2621;DHT22;1320;48.128;11.592;2023-12-28T05:49:15;8.40;86.00
2621;DHT22;1320;48.128;11.592;2023-12-28T05:51:41;8.40;85.20
2621;DHT22;1320;48.128;11.592;2023-12-28T05:54:07;8.40;85.20
2621;DHT22;1320;48.128;11.592;2023-12-28T05:56:33;8.40;85.30
2621;DHT22;1320;48.128;11.592;2023-12-28T05:58:59;8.30;85.30
2621;DHT22;1320;48.128;11.592;2023-12-28T06:01:25;8.30;85.60
2621;DHT22;1320;48.128;11.592;2023-12-28T06:03:50;8.30;85.60
2621;DHT22;1320;48.128;11.592;2023-12-28T06:06:18;8.30;85.70
2621;DHT22;1320;48.128;11.592;2023-12-28T06:08:44;8.20;85.90
2621;DHT22;1320;48.128;11.592;2023-12-28T06:11:10;8.20;86.10
2621;DHT22;1320;48.128;11.592;2023-12-28T06:13:35;8.20;86.00
2621;DHT22;1320;48.128;11.592;2023-12-28T06:16:01;8.10;85.90
2621;DHT22;1320;48.128;11.592;2023-12-28T06:18:27;8.10;86.00
2621;DHT22;1320;48.128;11.592;2023-12-28T06:20:52;8.10;86.10
2621;DHT22;1320;48.128;11.592;2023-12-28T06:23:18;8.10;86.00
2621;DHT22;1320;48.128;11.592;2023-12-28T06:25:44;8.00;85.90
2621;DHT22;1320;48.128;11.592;2023-12-28T06:28:09;8.10;86.00
2621;DHT22;1320;48.128;11.592;2023-12-28T06:30:35;8.00;86.10
2621;DHT22;1320;48.128;11.592;2023-12-28T06:33:01;8.00;86.00
2621;DHT22;1320;48.128;11.592;2023-12-28T06:35:26;8.10;86.30
2621;DHT22;1320;48.128;11.592;2023-12-28T06:37:52;8.10;86.30
2621;DHT22;1320;48.128;11.592;2023-12-28T06:40:17;8.10;86.30
2621;DHT22;1320;48.128;11.592;2023-12-28T06:42:43;8.10;87.00
2621;DHT22;1320;48.128;11.592;2023-12-28T06:45:09;8.10;86.20
2621;DHT22;1320;48.128;11.592;2023-12-28T06:47:35;8.00;86.40
2621;DHT22;1320;48.128;11.592;2023-12-28T06:50:01;8.00;86.40
2621;DHT22;1320;48.128;11.592;2023-12-28T06:52:27;8.10;86.60
2621;DHT22;1320;48.128;11.592;2023-12-28T06:54:52;8.00;86.40
2621;DHT22;1320;48.128;11.592;2023-12-28T06:57:19;8.10;86.20
2621;DHT22;1320;48.128;11.592;2023-12-28T06:59:44;8.10;86.20
2621;DHT22;1320;48.128;11.592;2023-12-28T07:02:10;8.20;85.80
2621;DHT22;1320;48.128;11.592;2023-12-28T07:04:36;8.20;85.80
2621;DHT22;1320;48.128;11.592;2023-12-28T07:07:01;8.30;85.80
2621;DHT22;1320;48.128;11.592;2023-12-28T07:09:27;8.30;85.70
2621;DHT22;1320;48.128;11.592;2023-12-28T07:11:53;8.40;85.80
2621;DHT22;1320;48.128;11.592;2023-12-28T07:14:19;8.50;85.90
2621;DHT22;1320;48.128;11.592;2023-12-28T07:16:44;8.60;85.30
2621;DHT22;1320;48.128;11.592;2023-12-28T07:19:11;8.70;86.10
2621;DHT22;1320;48.128;11.592;2023-12-28T07:21:36;8.70;85.50
2621;DHT22;1320;48.128;11.592;2023-12-28T07:24:02;8.70;85.50
2621;DHT22;1320;48.128;11.592;2023-12-28T07:26:27;8.80;85.80
2621;DHT22;1320;48.128;11.592;2023-12-28T07:28:53;8.80;85.20
2621;DHT22;1320;48.128;11.592;2023-12-28T07:31:27;8.80;85.10
2621;DHT22;1320;48.128;11.592;2023-12-28T07:33:54;8.80;85.30
2621;DHT22;1320;48.128;11.592;2023-12-28T07:36:20;8.90;85.40
2621;DHT22;1320;48.128;11.592;2023-12-28T07:38:46;8.90;85.30
2621;DHT22;1320;48.128;11.592;2023-12-28T07:41:12;8.90;85.00
2621;DHT22;1320;48.128;11.592;2023-12-28T07:43:37;8.90;85.40
2621;DHT22;1320;48.128;11.592;2023-12-28T07:46:03;8.90;84.60
2621;DHT22;1320;48.128;11.592;2023-12-28T07:48:30;9.00;84.70
2621;DHT22;1320;48.128;11.592;2023-12-28T07:51:03;9.00;84.80
2621;DHT22;1320;48.128;11.592;2023-12-28T07:53:29;9.10;84.50
2621;DHT22;1320;48.128;11.592;2023-12-28T07:55:54;9.10;84.30
2621;DHT22;1320;48.128;11.592;2023-12-28T07:58:21;9.20;84.90
2621;DHT22;1320;48.128;11.592;2023-12-28T08:00:47;9.30;84.80
2621;DHT22;1320;48.128;11.592;2023-12-28T08:03:13;9.30;84.30
2621;DHT22;1320;48.128;11.592;2023-12-28T08:05:41;9.40;83.40
2621;DHT22;1320;48.128;11.592;2023-12-28T08:08:07;9.40;83.10
2621;DHT22;1320;48.128;11.592;2023-12-28T08:10:33;9.50;83.80
2621;DHT22;1320;48.128;11.592;2023-12-28T08:12:58;9.60;83.60
2621;DHT22;1320;48.128;11.592;2023-12-28T08:15:24;9.60;84.00
2621;DHT22;1320;48.128;11.592;2023-12-28T08:17:50;9.60;83.80
2621;DHT22;1320;48.128;11.592;2023-12-28T08:20:16;9.70;84.70
2621;DHT22;1320;48.128;11.592;2023-12-28T08:22:42;9.70;85.50
2621;DHT22;1320;48.128;11.592;2023-12-28T08:25:07;9.70;85.90
2621;DHT22;1320;48.128;11.592;2023-12-28T08:27:33;9.80;84.80
2621;DHT22;1320;48.128;11.592;2023-12-28T08:29:59;9.80;84.80
2621;DHT22;1320;48.128;11.592;2023-12-28T08:32:24;9.90;84.90
2621;DHT22;1320;48.128;11.592;2023-12-28T08:34:50;10.00;82.60
2621;DHT22;1320;48.128;11.592;2023-12-28T08:37:16;10.10;82.30
2621;DHT22;1320;48.128;11.592;2023-12-28T08:39:42;10.20;81.00
2621;DHT22;1320;48.128;11.592;2023-12-28T08:42:07;10.30;81.70
2621;DHT22;1320;48.128;11.592;2023-12-28T08:44:33;10.50;80.80
2621;DHT22;1320;48.128;11.592;2023-12-28T08:46:59;10.60;80.80
2621;DHT22;1320;48.128;11.592;2023-12-28T08:49:24;10.80;80.60
2621;DHT22;1320;48.128;11.592;2023-12-28T08:51:51;10.90;80.20
2621;DHT22;1320;48.128;11.592;2023-12-28T08:54:16;11.10;80.30
2621;DHT22;1320;48.128;11.592;2023-12-28T08:56:42;11.30;79.60
2621;DHT22;1320;48.128;11.592;2023-12-28T08:59:09;11.40;78.70
2621;DHT22;1320;48.128;11.592;2023-12-28T09:01:34;11.60;78.60
2621;DHT22;1320;48.128;11.592;2023-12-28T09:04:00;11.70;78.60
2621;DHT22;1320;48.128;11.592;2023-12-28T09:06:26;11.90;78.80
2621;DHT22;1320;48.128;11.592;2023-12-28T09:08:52;12.10;78.70
2621;DHT22;1320;48.128;11.592;2023-12-28T09:11:19;12.20;76.90
2621;DHT22;1320;48.128;11.592;2023-12-28T09:13:45;12.40;77.10
2621;DHT22;1320;48.128;11.592;2023-12-28T09:16:13;12.60;76.00
2621;DHT22;1320;48.128;11.592;2023-12-28T09:18:40;12.70;75.60
2621;DHT22;1320;48.128;11.592;2023-12-28T09:21:07;12.70;75.80
2621;DHT22;1320;48.128;11.592;2023-12-28T09:23:34;12.90;75.60
2621;DHT22;1320;48.128;11.592;2023-12-28T09:26:01;13.00;75.70
2621;DHT22;1320;48.128;11.592;2023-12-28T09:28:26;13.20;74.80
2621;DHT22;1320;48.128;11.592;2023-12-28T09:30:52;13.30;75.00
2621;DHT22;1320;48.128;11.592;2023-12-28T09:33:18;13.50;74.00
2621;DHT22;1320;48.128;11.592;2023-12-28T09:35:43;13.60;73.50
2621;DHT22;1320;48.128;11.592;2023-12-28T09:38:09;13.60;73.10
2621;DHT22;1320;48.128;11.592;2023-12-28T09:40:35;13.60;72.20
2621;DHT22;1320;48.128;11.592;2023-12-28T09:46:09;13.70;72.50
2621;DHT22;1320;48.128;11.592;2023-12-28T09:48:37;13.90;72.70
2621;DHT22;1320;48.128;11.592;2023-12-28T09:51:04;13.90;72.70
2621;DHT22;1320;48.128;11.592;2023-12-28T09:53:31;14.00;72.40
2621;DHT22;1320;48.128;11.592;2023-12-28T09:55:57;14.10;73.00
2621;DHT22;1320;48.128;11.592;2023-12-28T09:58:24;14.10;72.90
2621;DHT22;1320;48.128;11.592;2023-12-28T10:00:51;14.10;72.30
2621;DHT22;1320;48.128;11.592;2023-12-28T10:03:17;14.10;72.70
2621;DHT22;1320;48.128;11.592;2023-12-28T10:05:44;14.10;73.10
2621;DHT22;1320;48.128;11.592;2023-12-28T10:08:14;14.10;72.40
2621;DHT22;1320;48.128;11.592;2023-12-28T10:10:41;14.10;72.40
2621;DHT22;1320;48.128;11.592;2023-12-28T10:13:07;14.10;72.50
2621;DHT22;1320;48.128;11.592;2023-12-28T10:15:37;14.10;72.30
2621;DHT22;1320;48.128;11.592;2023-12-28T10:18:04;14.10;72.20
2621;DHT22;1320;48.128;11.592;2023-12-28T10:20:31;14.10;72.20
2621;DHT22;1320;48.128;11.592;2023-12-28T10:22:58;14.10;72.50
2621;DHT22;1320;48.128;11.592;2023-12-28T10:25:24;14.10;72.40
2621;DHT22;1320;48.128;11.592;2023-12-28T10:27:50;14.10;72.40
2621;DHT22;1320;48.128;11.592;2023-12-28T10:30:22;14.10;72.50
2621;DHT22;1320;48.128;11.592;2023-12-28T10:32:48;14.10;72.10
2621;DHT22;1320;48.128;11.592;2023-12-28T10:35:14;14.10;72.50
2621;DHT22;1320;48.128;11.592;2023-12-28T10:37:40;14.10;72.50
2621;DHT22;1320;48.128;11.592;2023-12-28T10:40:07;14.00;72.30
2621;DHT22;1320;48.128;11.592;2023-12-28T10:43:03;14.10;72.20
2621;DHT22;1320;48.128;11.592;2023-12-28T10:45:32;14.10;72.10
2621;DHT22;1320;48.128;11.592;2023-12-28T10:50:38;14.20;72.30
2621;DHT22;1320;48.128;11.592;2023-12-28T10:53:26;14.20;71.70
2621;DHT22;1320;48.128;11.592;2023-12-28T10:58:49;14.30;71.80
2621;DHT22;1320;48.128;11.592;2023-12-28T11:01:28;14.30;72.40
2621;DHT22;1320;48.128;11.592;2023-12-28T11:04:04;14.30;71.80
2621;DHT22;1320;48.128;11.592;2023-12-28T11:06:34;14.40;72.30
2621;DHT22;1320;48.128;11.592;2023-12-28T11:09:00;14.40;72.40
2621;DHT22;1320;48.128;11.592;2023-12-28T11:11:27;14.40;73.00
2621;DHT22;1320;48.128;11.592;2023-12-28T11:13:55;14.50;72.60
2621;DHT22;1320;48.128;11.592;2023-12-28T11:16:22;14.60;71.90
2621;DHT22;1320;48.128;11.592;2023-12-28T11:18:49;14.60;71.50
2621;DHT22;1320;48.128;11.592;2023-12-28T11:21:16;14.60;72.40
2621;DHT22;1320;48.128;11.592;2023-12-28T11:23:43;14.50;71.50
2621;DHT22;1320;48.128;11.592;2023-12-28T11:26:20;14.50;71.10
2621;DHT22;1320;48.128;11.592;2023-12-28T11:28:46;14.50;70.60
2621;DHT22;1320;48.128;11.592;2023-12-28T11:31:16;14.50;70.90
2621;DHT22;1320;48.128;11.592;2023-12-28T11:33:47;14.50;70.60
2621;DHT22;1320;48.128;11.592;2023-12-28T11:36:43;14.40;71.00
2621;DHT22;1320;48.128;11.592;2023-12-28T11:39:07;14.40;71.20
2621;DHT22;1320;48.128;11.592;2023-12-28T11:41:35;14.40;71.40
2621;DHT22;1320;48.128;11.592;2023-12-28T11:44:05;14.40;72.10
2621;DHT22;1320;48.128;11.592;2023-12-28T11:46:35;14.50;73.20
2621;DHT22;1320;48.128;11.592;2023-12-28T11:49:08;14.50;73.20
2621;DHT22;1320;48.128;11.592;2023-12-28T11:51:35;14.60;73.50
2621;DHT22;1320;48.128;11.592;2023-12-28T11:54:03;14.70;74.50
2621;DHT22;1320;48.128;11.592;2023-12-28T11:56:29;14.70;73.00
2621;DHT22;1320;48.128;11.592;2023-12-28T11:58:55;14.80;72.70
2621;DHT22;1320;48.128;11.592;2023-12-28T12:01:21;14.80;72.50
2621;DHT22;1320;48.128;11.592;2023-12-28T12:03:47;14.80;72.60
2621;DHT22;1320;48.128;11.592;2023-12-28T12:06:14;14.90;73.30
2621;DHT22;1320;48.128;11.592;2023-12-28T12:08:39;14.90;72.60
2621;DHT22;1320;48.128;11.592;2023-12-28T12:11:06;14.90;72.30
2621;DHT22;1320;48.128;11.592;2023-12-28T12:13:33;15.00;72.80
2621;DHT22;1320;48.128;11.592;2023-12-28T12:15:59;15.00;72.10
2621;DHT22;1320;48.128;11.592;2023-12-28T12:18:26;15.00;71.20
2621;DHT22;1320;48.128;11.592;2023-12-28T12:20:51;15.00;71.00
2621;DHT22;1320;48.128;11.592;2023-12-28T12:23:17;15.00;71.20
2621;DHT22;1320;48.128;11.592;2023-12-28T12:25:43;15.00;71.40
2621;DHT22;1320;48.128;11.592;2023-12-28T12:28:11;14.90;71.20
2621;DHT22;1320;48.128;11.592;2023-12-28T12:30:36;14.90;71.30
2621;DHT22;1320;48.128;11.592;2023-12-28T12:33:02;14.80;71.20
2621;DHT22;1320;48.128;11.592;2023-12-28T12:35:28;14.70;71.80
2621;DHT22;1320;48.128;11.592;2023-12-28T12:37:54;14.60;71.80
2621;DHT22;1320;48.128;11.592;2023-12-28T12:40:20;14.50;72.00
2621;DHT22;1320;48.128;11.592;2023-12-28T12:42:53;14.50;72.50
2621;DHT22;1320;48.128;11.592;2023-12-28T12:45:20;14.50;72.70
2621;DHT22;1320;48.128;11.592;2023-12-28T12:47:47;14.40;72.80
2621;DHT22;1320;48.128;11.592;2023-12-28T12:50:13;14.40;72.90
2621;DHT22;1320;48.128;11.592;2023-12-28T12:52:41;14.40;73.00
2621;DHT22;1320;48.128;11.592;2023-12-28T12:55:11;14.40;72.90
2621;DHT22;1320;48.128;11.592;2023-12-28T12:57:36;14.40;73.10
2621;DHT22;1320;48.128;11.592;2023-12-28T13:00:04;14.40;73.40
2621;DHT22;1320;48.128;11.592;2023-12-28T13:02:33;14.40;73.70
2621;DHT22;1320;48.128;11.592;2023-12-28T13:05:02;14.30;73.50
2621;DHT22;1320;48.128;11.592;2023-12-28T13:07:29;14.40;73.90
2621;DHT22;1320;48.128;11.592;2023-12-28T13:09:55;14.40;73.90
2621;DHT22;1320;48.128;11.592;2023-12-28T13:12:21;14.40;74.10
2621;DHT22;1320;48.128;11.592;2023-12-28T13:14:46;14.40;74.20
2621;DHT22;1320;48.128;11.592;2023-12-28T13:17:12;14.30;74.30
2621;DHT22;1320;48.128;11.592;2023-12-28T13:19:38;14.30;74.40
2621;DHT22;1320;48.128;11.592;2023-12-28T13:22:04;14.30;74.70
2621;DHT22;1320;48.128;11.592;2023-12-28T13:24:30;14.30;75.00
2621;DHT22;1320;48.128;11.592;2023-12-28T13:26:56;14.30;75.40
2621;DHT22;1320;48.128;11.592;2023-12-28T13:29:22;14.30;75.70
2621;DHT22;1320;48.128;11.592;2023-12-28T13:31:48;14.30;75.40
2621;DHT22;1320;48.128;11.592;2023-12-28T13:34:16;14.30;75.80
2621;DHT22;1320;48.128;11.592;2023-12-28T13:36:42;14.30;75.80
2621;DHT22;1320;48.128;11.592;2023-12-28T13:39:08;14.30;76.00
2621;DHT22;1320;48.128;11.592;2023-12-28T13:41:37;14.30;76.20
2621;DHT22;1320;48.128;11.592;2023-12-28T13:44:03;14.40;76.60
2621;DHT22;1320;48.128;11.592;2023-12-28T13:46:30;14.40;76.50
2621;DHT22;1320;48.128;11.592;2023-12-28T13:48:56;14.40;77.00
2621;DHT22;1320;48.128;11.592;2023-12-28T13:51:22;14.40;76.70
2621;DHT22;1320;48.128;11.592;2023-12-28T13:53:48;14.40;76.90
2621;DHT22;1320;48.128;11.592;2023-12-28T13:56:14;14.50;76.90
2621;DHT22;1320;48.128;11.592;2023-12-28T13:58:39;14.50;77.10
2621;DHT22;1320;48.128;11.592;2023-12-28T14:01:05;14.40;77.10
2621;DHT22;1320;48.128;11.592;2023-12-28T14:03:31;14.50;77.10
2621;DHT22;1320;48.128;11.592;2023-12-28T14:05:56;14.40;77.10
2621;DHT22;1320;48.128;11.592;2023-12-28T14:08:22;14.40;77.20
2621;DHT22;1320;48.128;11.592;2023-12-28T14:10:48;14.40;77.40
2621;DHT22;1320;48.128;11.592;2023-12-28T14:13:13;14.30;77.60
2621;DHT22;1320;48.128;11.592;2023-12-28T14:15:39;14.30;77.90
2621;DHT22;1320;48.128;11.592;2023-12-28T14:18:05;14.30;77.80
2621;DHT22;1320;48.128;11.592;2023-12-28T14:20:32;14.30;78.10
2621;DHT22;1320;48.128;11.592;2023-12-28T14:22:57;14.30;78.10
2621;DHT22;1320;48.128;11.592;2023-12-28T14:25:23;14.30;78.20
2621;DHT22;1320;48.128;11.592;2023-12-28T14:27:50;14.30;78.40
2621;DHT22;1320;48.128;11.592;2023-12-28T14:30:16;14.30;78.20
2621;DHT22;1320;48.128;11.592;2023-12-28T14:32:42;14.30;78.30
2621;DHT22;1320;48.128;11.592;2023-12-28T14:35:08;14.30;78.50
2621;DHT22;1320;48.128;11.592;2023-12-28T14:37:34;14.30;78.50
2621;DHT22;1320;48.128;11.592;2023-12-28T14:40:00;14.40;78.50
2621;DHT22;1320;48.128;11.592;2023-12-28T14:42:34;14.40;78.70
2621;DHT22;1320;48.128;11.592;2023-12-28T14:45:00;14.40;78.70
2621;DHT22;1320;48.128;11.592;2023-12-28T14:47:27;14.40;78.50
2621;DHT22;1320;48.128;11.592;2023-12-28T14:49:53;14.40;78.60
2621;DHT22;1320;48.128;11.592;2023-12-28T14:52:21;14.40;78.70
2621;DHT22;1320;48.128;11.592;2023-12-28T14:54:46;14.40;79.00
2621;DHT22;1320;48.128;11.592;2023-12-28T14:57:12;14.30;79.20
2621;DHT22;1320;48.128;11.592;2023-12-28T14:59:38;14.30;79.10
2621;DHT22;1320;48.128;11.592;2023-12-28T15:02:03;14.30;79.20
2621;DHT22;1320;48.128;11.592;2023-12-28T15:04:29;14.20;79.40
2621;DHT22;1320;48.128;11.592;2023-12-28T15:06:55;14.20;79.40
2621;DHT22;1320;48.128;11.592;2023-12-28T15:09:20;14.20;79.50
2621;DHT22;1320;48.128;11.592;2023-12-28T15:11:46;14.20;79.60
2621;DHT22;1320;48.128;11.592;2023-12-28T15:14:12;14.20;79.60
2621;DHT22;1320;48.128;11.592;2023-12-28T15:16:38;14.20;79.70
2621;DHT22;1320;48.128;11.592;2023-12-28T15:19:04;14.10;79.60
2621;DHT22;1320;48.128;11.592;2023-12-28T15:21:30;14.10;79.60
2621;DHT22;1320;48.128;11.592;2023-12-28T15:23:56;14.00;79.60
2621;DHT22;1320;48.128;11.592;2023-12-28T15:26:22;14.00;79.60
2621;DHT22;1320;48.128;11.592;2023-12-28T15:28:47;13.90;79.70
2621;DHT22;1320;48.128;11.592;2023-12-28T15:31:16;13.90;79.80
2621;DHT22;1320;48.128;11.592;2023-12-28T15:33:42;13.90;79.80
2621;DHT22;1320;48.128;11.592;2023-12-28T15:36:07;13.80;79.80
2621;DHT22;1320;48.128;11.592;2023-12-28T15:38:34;13.80;79.90
2621;DHT22;1320;48.128;11.592;2023-12-28T15:41:00;13.80;80.10
2621;DHT22;1320;48.128;11.592;2023-12-28T15:43:25;13.70;80.10
2621;DHT22;1320;48.128;11.592;2023-12-28T15:45:51;13.70;80.30
2621;DHT22;1320;48.128;11.592;2023-12-28T15:48:16;13.70;80.10
2621;DHT22;1320;48.128;11.592;2023-12-28T15:50:42;13.70;80.10
2621;DHT22;1320;48.128;11.592;2023-12-28T15:53:08;13.70;80.30
2621;DHT22;1320;48.128;11.592;2023-12-28T15:55:33;13.70;80.70
2621;DHT22;1320;48.128;11.592;2023-12-28T15:57:59;13.70;80.50
2621;DHT22;1320;48.128;11.592;2023-12-28T16:00:25;13.70;80.40